createdAt,value
2018-09-17T00:00:55.558Z,18.30
2018-09-17T00:01:55.512Z,14.50
2018-09-17T00:02:55.484Z,15.40
2018-09-17T00:03:55.461Z,10.50
2018-09-17T00:04:55.407Z,15.30
2018-09-17T00:05:55.371Z,18.20
2018-09-17T00:06:55.344Z,14.00
2018-09-17T00:07:55.305Z,14.40
2018-09-17T00:08:55.272Z,18.00
2018-09-17T00:09:55.282Z,14.20
2018-09-17T00:10:55.284Z,10.00
2018-09-17T00:11:55.166Z,16.60
2018-09-17T00:12:55.133Z,15.00
2018-09-17T00:13:55.105Z,14.80
2018-09-17T00:14:55.062Z,16.30
2018-09-17T00:15:55.307Z,16.10
2018-09-17T00:16:54.997Z,15.10
2018-09-17T00:17:54.962Z,10.40
2018-09-17T00:18:54.918Z,14.90
2018-09-17T00:19:54.896Z,10.20
2018-09-17T00:20:54.852Z,13.90
2018-09-17T00:21:54.820Z,14.20
2018-09-17T00:22:54.781Z,18.50
2018-09-17T00:23:54.746Z,14.20
2018-09-17T00:24:54.716Z,13.20
2018-09-17T00:25:54.679Z,12.60
2018-09-17T00:26:54.641Z,19.00
2018-09-17T00:27:54.611Z,12.50
2018-09-17T00:28:54.575Z,15.60
2018-09-17T00:29:54.545Z,11.80
2018-09-17T00:30:54.507Z,13.30
2018-09-17T00:31:54.481Z,10.10
2018-09-17T00:32:54.442Z,13.30
2018-09-17T00:33:54.417Z,12.30
2018-09-17T00:34:54.373Z,12.80
2018-09-17T00:35:54.386Z,14.80
2018-09-17T00:36:54.300Z,10.60
2018-09-17T00:37:54.266Z,14.50
2018-09-17T00:38:54.233Z,14.50
2018-09-17T00:39:54.195Z,15.60
2018-09-17T00:40:54.159Z,11.70
2018-09-17T00:41:54.127Z,10.20
2018-09-17T00:42:54.089Z,10.80
2018-09-17T00:43:54.059Z,14.80
2018-09-17T00:44:54.021Z,10.90
2018-09-17T00:45:53.987Z,10.20
2018-09-17T00:46:53.955Z,14.00
2018-09-17T00:47:53.919Z,10.90
2018-09-17T00:48:53.879Z,16.80
2018-09-17T00:49:53.849Z,14.60
2018-09-17T00:50:53.831Z,10.30
2018-09-17T00:51:53.781Z,12.90
2018-09-17T00:52:53.748Z,9.50
2018-09-17T00:53:53.709Z,12.70
2018-09-17T00:54:53.671Z,11.70
2018-09-17T00:55:53.642Z,15.70
2018-09-17T00:56:53.615Z,11.30
2018-09-17T00:57:53.655Z,12.80
2018-09-17T00:58:53.540Z,12.10
2018-09-17T00:59:53.496Z,13.20
2018-09-17T01:00:53.489Z,10.00
2018-09-17T01:01:53.451Z,13.50
2018-09-17T01:02:53.399Z,14.60
2018-09-17T01:03:53.357Z,17.00
2018-09-17T01:04:53.329Z,13.40
2018-09-17T01:05:53.302Z,12.10
2018-09-17T01:06:53.252Z,12.10
2018-09-17T01:07:53.220Z,15.70
2018-09-17T01:08:53.180Z,13.10
2018-09-17T01:09:53.145Z,14.30
2018-09-17T01:10:53.118Z,13.00
2018-09-17T01:11:53.078Z,12.60
2018-09-17T01:12:53.046Z,11.80
2018-09-17T01:13:53.026Z,13.60
2018-09-17T01:14:52.975Z,15.70
2018-09-17T01:15:52.945Z,12.10
2018-09-17T01:16:52.906Z,13.50
2018-09-17T01:17:52.869Z,14.10
2018-09-17T01:18:52.833Z,15.30
2018-09-17T01:19:52.799Z,14.10
2018-09-17T01:20:52.762Z,20.90
2018-09-17T01:21:52.735Z,13.20
2018-09-17T01:22:52.695Z,15.30
2018-09-17T01:23:52.663Z,12.60
2018-09-17T01:24:52.654Z,14.60
2018-09-17T01:25:52.591Z,13.00
2018-09-17T01:26:52.556Z,19.80
2018-09-17T01:27:52.525Z,12.80
2018-09-17T01:28:52.482Z,13.20
2018-09-17T01:29:52.448Z,12.60
2018-09-17T01:30:52.412Z,9.50
2018-09-17T01:31:52.376Z,14.30
2018-09-17T01:32:52.339Z,19.00
2018-09-17T01:33:52.306Z,10.80
2018-09-17T01:34:52.283Z,16.60
2018-09-17T01:35:52.242Z,15.20
2018-09-17T01:36:52.205Z,12.20
2018-09-17T01:37:52.169Z,13.20
2018-09-17T01:38:52.201Z,14.40
2018-09-17T01:39:52.104Z,12.20
2018-09-17T01:40:52.063Z,12.60
2018-09-17T01:41:52.027Z,15.90
2018-09-17T01:42:51.999Z,13.30
2018-09-17T01:43:51.973Z,13.40
2018-09-17T01:44:51.923Z,13.20
2018-09-17T01:45:51.895Z,9.80
2018-09-17T01:46:51.850Z,14.60
2018-09-17T01:47:51.836Z,8.50
2018-09-17T01:48:51.778Z,13.30
2018-09-17T01:49:51.745Z,10.90
2018-09-17T01:50:51.709Z,12.80
2018-09-17T01:51:51.673Z,13.70
2018-09-17T01:52:51.637Z,12.70
2018-09-17T01:53:51.604Z,10.10
2018-09-17T01:54:51.577Z,10.90
2018-09-17T01:55:51.555Z,12.80
2018-09-17T01:56:51.514Z,11.10
2018-09-17T01:57:51.465Z,11.00
2018-09-17T01:58:51.436Z,14.80
2018-09-17T01:59:51.390Z,8.10
2018-09-17T02:00:51.359Z,11.30
2018-09-17T02:01:51.330Z,11.40
2018-09-17T02:02:51.303Z,16.50
2018-09-17T02:03:52.055Z,13.10
2018-09-17T02:04:51.216Z,13.90
2018-09-17T02:05:51.181Z,16.20
2018-09-17T02:06:51.155Z,10.00
2018-09-17T02:07:51.109Z,12.30
2018-09-17T02:08:51.098Z,12.10
2018-09-17T02:09:51.091Z,12.40
2018-09-17T02:10:51.005Z,14.70
2018-09-17T02:11:50.981Z,12.00
2018-09-17T02:12:50.934Z,12.70
2018-09-17T02:13:50.908Z,12.30
2018-09-17T02:14:50.867Z,13.70
2018-09-17T02:15:50.848Z,12.00
2018-09-17T02:16:50.842Z,11.70
2018-09-17T02:17:50.753Z,11.00
2018-09-17T02:18:50.721Z,12.40
2018-09-17T02:19:51.295Z,13.40
2018-09-17T02:20:50.690Z,11.80
2018-09-17T02:21:50.657Z,14.50
2018-09-17T02:22:50.611Z,13.50
2018-09-17T02:23:50.542Z,9.20
2018-09-17T02:24:50.517Z,11.60
2018-09-17T02:25:50.470Z,12.50
2018-09-17T02:26:50.450Z,8.50
2018-09-17T02:27:50.416Z,12.30
2018-09-17T02:28:50.375Z,12.20
2018-09-17T02:29:50.328Z,12.10
2018-09-17T02:30:50.296Z,11.00
2018-09-17T02:31:50.260Z,12.10
2018-09-17T02:32:50.224Z,11.40
2018-09-17T02:33:50.192Z,12.40
2018-09-17T02:34:50.189Z,11.30
2018-09-17T02:35:50.120Z,13.10
2018-09-17T02:36:50.107Z,13.30
2018-09-17T02:37:50.042Z,11.80
2018-09-17T02:38:50.013Z,13.40
2018-09-17T02:39:49.971Z,10.80
2018-09-17T02:40:50.014Z,14.70
2018-09-17T02:41:49.901Z,11.40
2018-09-17T02:42:50.059Z,11.60
2018-09-17T02:43:49.839Z,11.30
2018-09-17T02:44:49.805Z,14.20
2018-09-17T02:45:49.755Z,13.20
2018-09-17T02:46:49.746Z,13.30
2018-09-17T02:47:50.467Z,19.10
2018-09-17T02:48:49.648Z,13.40
2018-09-17T02:49:49.653Z,14.10
2018-09-17T02:50:49.611Z,17.70
2018-09-17T02:51:49.545Z,12.70
2018-09-17T02:52:49.519Z,15.20
2018-09-17T02:53:49.478Z,13.20
2018-09-17T02:54:49.438Z,15.00
2018-09-17T02:55:49.427Z,11.60
2018-09-17T02:56:49.405Z,11.70
2018-09-17T02:57:49.351Z,13.50
2018-09-17T02:58:49.305Z,12.50
2018-09-17T02:59:49.255Z,12.00
2018-09-17T03:00:49.268Z,13.90
2018-09-17T03:01:49.192Z,12.70
2018-09-17T03:02:49.149Z,12.60
2018-09-17T03:03:49.135Z,13.10
2018-09-17T03:04:49.090Z,11.40
2018-09-17T03:05:49.044Z,14.20
2018-09-17T03:06:49.010Z,9.80
2018-09-17T03:07:48.965Z,16.90
2018-09-17T03:08:48.946Z,15.00
2018-09-17T03:09:48.898Z,14.30
2018-09-17T03:10:48.869Z,12.30
2018-09-17T03:11:48.831Z,11.60
2018-09-17T03:12:48.822Z,12.70
2018-09-17T03:13:48.757Z,10.60
2018-09-17T03:14:48.724Z,13.60
2018-09-17T03:15:49.140Z,14.20
2018-09-17T03:16:48.658Z,14.90
2018-09-17T03:17:48.619Z,10.60
2018-09-17T03:18:48.580Z,10.20
2018-09-17T03:19:48.552Z,12.50
2018-09-17T03:20:48.505Z,13.20
2018-09-17T03:21:48.473Z,10.80
2018-09-17T03:22:48.437Z,13.60
2018-09-17T03:23:48.397Z,12.30
2018-09-17T03:24:48.369Z,14.90
2018-09-17T03:25:48.335Z,10.00
2018-09-17T03:26:48.324Z,12.30
2018-09-17T03:27:48.268Z,12.50
2018-09-17T03:28:48.221Z,10.80
2018-09-17T03:29:48.188Z,11.10
2018-09-17T03:30:48.157Z,9.80
2018-09-17T03:31:48.121Z,12.50
2018-09-17T03:32:48.077Z,12.60
2018-09-17T03:33:48.041Z,11.60
2018-09-17T03:34:48.014Z,11.80
2018-09-17T03:35:47.971Z,12.70
2018-09-17T03:36:47.934Z,14.00
2018-09-17T03:37:47.899Z,12.20
2018-09-17T03:38:48.130Z,11.70
2018-09-17T03:39:47.833Z,10.60
2018-09-17T03:40:47.798Z,11.40
2018-09-17T03:41:47.762Z,12.70
2018-09-17T03:42:47.720Z,12.30
2018-09-17T03:43:47.680Z,14.70
2018-09-17T03:44:47.659Z,11.40
2018-09-17T03:45:47.617Z,11.70
2018-09-17T03:46:47.712Z,10.90
2018-09-17T03:47:47.572Z,10.80
2018-09-17T03:48:47.505Z,10.20
2018-09-17T03:49:47.471Z,10.60
2018-09-17T03:50:47.434Z,14.10
2018-09-17T03:51:47.396Z,11.40
2018-09-17T03:52:47.362Z,10.70
2018-09-17T03:53:47.326Z,11.50
2018-09-17T03:54:47.286Z,11.20
2018-09-17T03:55:47.253Z,9.00
2018-09-17T03:56:47.240Z,12.10
2018-09-17T03:57:47.208Z,12.10
2018-09-17T03:58:47.151Z,10.80
2018-09-17T03:59:47.115Z,13.10
2018-09-17T04:00:47.109Z,16.20
2018-09-17T04:01:47.078Z,15.50
2018-09-17T04:02:47.039Z,13.00
2018-09-17T04:03:46.964Z,10.50
2018-09-17T04:04:46.953Z,12.60
2018-09-17T04:05:46.919Z,10.10
2018-09-17T04:06:46.867Z,12.20
2018-09-17T04:07:46.825Z,11.00
2018-09-17T04:08:46.786Z,12.30
2018-09-17T04:09:46.755Z,12.00
2018-09-17T04:10:46.724Z,12.70
2018-09-17T04:11:46.678Z,11.70
2018-09-17T04:12:46.650Z,11.50
2018-09-17T04:13:46.607Z,11.40
2018-09-17T04:14:46.606Z,11.60
2018-09-17T04:15:46.575Z,11.00
2018-09-17T04:16:46.514Z,11.20
2018-09-17T04:17:46.474Z,11.80
2018-09-17T04:18:46.437Z,15.20
2018-09-17T04:19:46.392Z,12.70
2018-09-17T04:20:46.361Z,11.80
2018-09-17T04:21:46.332Z,12.80
2018-09-17T04:22:46.300Z,15.70
2018-09-17T04:23:46.250Z,14.00
2018-09-17T04:24:46.213Z,9.90
2018-09-17T04:25:46.177Z,16.50
2018-09-17T04:26:46.141Z,13.60
2018-09-17T04:27:46.105Z,11.40
2018-09-17T04:28:46.095Z,11.80
2018-09-17T04:29:46.038Z,15.10
2018-09-17T04:30:46.029Z,10.80
2018-09-17T04:31:45.965Z,11.90
2018-09-17T04:32:45.931Z,12.30
2018-09-17T04:33:45.892Z,12.00
2018-09-17T04:34:45.864Z,11.50
2018-09-17T04:35:45.819Z,13.40
2018-09-17T04:36:45.786Z,13.60
2018-09-17T04:37:45.750Z,15.50
2018-09-17T04:38:45.720Z,12.40
2018-09-17T04:39:45.700Z,13.50
2018-09-17T04:40:45.662Z,12.10
2018-09-17T04:41:45.604Z,14.60
2018-09-17T04:42:45.583Z,15.60
2018-09-17T04:43:45.529Z,15.60
2018-09-17T04:44:45.496Z,11.40
2018-09-17T04:45:45.460Z,20.20
2018-09-17T04:46:45.422Z,13.20
2018-09-17T04:47:45.384Z,21.30
2018-09-17T04:48:45.368Z,16.30
2018-09-17T04:49:45.330Z,19.00
2018-09-17T04:50:45.289Z,17.40
2018-09-17T04:51:45.245Z,25.80
2018-09-17T04:52:45.208Z,22.60
2018-09-17T04:53:45.190Z,23.20
2018-09-17T04:54:45.143Z,20.00
2018-09-17T04:55:45.100Z,29.30
2018-09-17T04:56:45.059Z,31.80
2018-09-17T04:57:45.028Z,27.00
2018-09-17T04:58:45.049Z,24.60
2018-09-17T04:59:44.957Z,19.10
2018-09-17T05:00:44.919Z,25.90
2018-09-17T05:01:44.888Z,26.70
2018-09-17T05:02:44.850Z,26.00
2018-09-17T05:03:44.809Z,31.10
2018-09-17T05:04:44.774Z,29.90
2018-09-17T05:05:44.764Z,20.10
2018-09-17T05:06:44.704Z,22.30
2018-09-17T05:07:44.662Z,24.00
2018-09-17T05:08:44.891Z,31.00
2018-09-17T05:09:44.591Z,22.90
2018-09-17T05:10:44.603Z,23.40
2018-09-17T05:11:44.532Z,23.60
2018-09-17T05:12:44.479Z,25.30
2018-09-17T05:13:44.449Z,28.40
2018-09-17T05:14:44.416Z,17.40
2018-09-17T05:15:44.373Z,22.50
2018-09-17T05:16:44.341Z,23.90
2018-09-17T05:17:44.307Z,15.00
2018-09-17T05:18:44.267Z,17.70
2018-09-17T05:19:44.232Z,19.30
2018-09-17T05:20:44.203Z,20.80
2018-09-17T05:21:44.171Z,22.50
2018-09-17T05:22:44.121Z,25.00
2018-09-17T05:23:44.136Z,20.60
2018-09-17T05:24:44.152Z,19.80
2018-09-17T05:25:44.018Z,18.00
2018-09-17T05:26:43.992Z,22.80
2018-09-17T05:27:43.944Z,24.00
2018-09-17T05:28:43.906Z,17.50
2018-09-17T05:29:43.884Z,20.10
2018-09-17T05:30:43.840Z,18.40
2018-09-17T05:31:43.816Z,19.90
2018-09-17T05:32:43.766Z,20.70
2018-09-17T05:33:43.726Z,15.90
2018-09-17T05:34:43.724Z,21.20
2018-09-17T05:35:43.669Z,14.40
2018-09-17T05:36:43.622Z,18.60
2018-09-17T05:37:43.603Z,17.80
2018-09-17T05:38:43.546Z,11.80
2018-09-17T05:39:43.512Z,19.80
2018-09-17T05:40:43.536Z,19.70
2018-09-17T05:41:43.482Z,23.40
2018-09-17T05:42:43.414Z,18.00
2018-09-17T05:43:43.374Z,17.80
2018-09-17T05:44:43.338Z,17.10
2018-09-17T05:45:43.306Z,20.70
2018-09-17T05:46:43.264Z,15.30
2018-09-17T05:47:43.229Z,20.80
2018-09-17T05:48:43.205Z,19.00
2018-09-17T05:49:43.162Z,21.30
2018-09-17T05:50:43.123Z,33.00
2018-09-17T05:51:43.090Z,30.60
2018-09-17T05:52:43.074Z,27.90
2018-09-17T05:53:43.051Z,26.30
2018-09-17T05:54:43.033Z,22.60
2018-09-17T05:55:42.952Z,27.60
2018-09-17T05:56:42.908Z,24.90
2018-09-17T05:57:42.883Z,20.40
2018-09-17T05:58:42.845Z,18.70
2018-09-17T05:59:42.955Z,22.90
2018-09-17T06:00:42.766Z,23.40
2018-09-17T06:01:42.736Z,22.40
2018-09-17T06:02:42.699Z,21.20
2018-09-17T06:03:42.664Z,29.00
2018-09-17T06:04:42.633Z,28.70
2018-09-17T06:05:42.654Z,23.20
2018-09-17T06:06:42.580Z,22.00
2018-09-17T06:07:42.530Z,18.60
2018-09-17T06:08:42.487Z,21.80
2018-09-17T06:09:42.455Z,25.30
2018-09-17T06:10:42.422Z,23.60
2018-09-17T06:11:42.422Z,22.50
2018-09-17T06:12:42.356Z,28.10
2018-09-17T06:13:42.311Z,43.40
2018-09-17T06:14:42.313Z,29.60
2018-09-17T06:15:42.239Z,28.70
2018-09-17T06:16:42.209Z,24.90
2018-09-17T06:17:42.168Z,22.20
2018-09-17T06:18:42.138Z,54.40
2018-09-17T06:19:42.102Z,41.40
2018-09-17T06:20:42.069Z,44.80
2018-09-17T06:21:42.038Z,33.20
2018-09-17T06:22:42.032Z,21.40
2018-09-17T06:23:41.968Z,13.40
2018-09-17T06:24:41.927Z,15.50
2018-09-17T06:25:41.923Z,13.70
2018-09-17T06:26:41.925Z,20.80
2018-09-17T06:27:41.824Z,17.20
2018-09-17T06:28:41.854Z,24.00
2018-09-17T06:29:41.784Z,24.60
2018-09-17T06:30:41.722Z,25.50
2018-09-17T06:31:41.689Z,27.00
2018-09-17T06:32:41.663Z,28.20
2018-09-17T06:33:41.620Z,21.80
2018-09-17T06:34:41.593Z,17.00
2018-09-17T06:35:41.552Z,18.60
2018-09-17T06:36:41.518Z,18.40
2018-09-17T06:37:41.560Z,18.40
2018-09-17T06:38:41.453Z,17.30
2018-09-17T06:39:41.441Z,30.50
2018-09-17T06:40:41.384Z,32.60
2018-09-17T06:41:41.414Z,13.20
2018-09-17T06:42:41.316Z,34.70
2018-09-17T06:43:41.288Z,18.20
2018-09-17T06:44:41.273Z,13.20
2018-09-17T06:45:41.218Z,20.00
2018-09-17T06:46:41.182Z,21.80
2018-09-17T06:47:41.186Z,14.30
2018-09-17T06:48:41.123Z,21.30
2018-09-17T06:49:41.083Z,21.70
2018-09-17T06:50:41.051Z,22.70
2018-09-17T06:51:41.027Z,21.70
2018-09-17T06:52:40.998Z,17.50
2018-09-17T06:53:40.963Z,17.30
2018-09-17T06:54:40.920Z,23.90
2018-09-17T06:55:40.929Z,23.20
2018-09-17T06:56:40.866Z,19.40
2018-09-17T06:57:40.824Z,19.90
2018-09-17T06:58:40.793Z,21.00
2018-09-17T06:59:40.765Z,19.30
2018-09-17T07:00:40.726Z,18.50
2018-09-17T07:01:40.695Z,28.00
2018-09-17T07:02:40.667Z,23.00
2018-09-17T07:03:40.631Z,20.20
2018-09-17T07:04:40.601Z,20.30
2018-09-17T07:05:40.569Z,19.50
2018-09-17T07:06:40.544Z,17.50
2018-09-17T07:07:40.507Z,16.90
2018-09-17T07:08:40.520Z,14.00
2018-09-17T07:09:40.445Z,17.60
2018-09-17T07:10:40.435Z,15.20
2018-09-17T07:11:40.382Z,13.00
2018-09-17T07:12:40.351Z,13.00
2018-09-17T07:13:40.321Z,17.50
2018-09-17T07:14:40.293Z,17.30
2018-09-17T07:15:40.261Z,16.20
2018-09-17T07:16:40.230Z,16.60
2018-09-17T07:17:40.203Z,17.70
2018-09-17T07:18:40.172Z,19.80
2018-09-17T07:19:40.146Z,14.80
2018-09-17T07:20:40.112Z,20.70
2018-09-17T07:21:40.084Z,24.80
2018-09-17T07:22:40.059Z,21.40
2018-09-17T07:23:40.104Z,16.80
2018-09-17T07:24:39.997Z,18.90
2018-09-17T07:25:39.966Z,16.80
2018-09-17T07:26:39.932Z,18.80
2018-09-17T07:27:39.905Z,16.30
2018-09-17T07:28:39.873Z,25.30
2018-09-17T07:29:39.846Z,12.80
2018-09-17T07:30:39.817Z,15.30
2018-09-17T07:31:39.803Z,22.00
2018-09-17T07:32:39.792Z,23.80
2018-09-17T07:33:39.734Z,15.20
2018-09-17T07:34:39.707Z,14.80
2018-09-17T07:35:39.672Z,18.70
2018-09-17T07:36:39.697Z,26.40
2018-09-17T07:37:39.616Z,19.40
2018-09-17T07:38:40.058Z,14.60
2018-09-17T07:39:39.577Z,19.80
2018-09-17T07:40:39.560Z,20.90
2018-09-17T07:41:39.503Z,14.80
2018-09-17T07:42:39.498Z,19.90
2018-09-17T07:43:39.445Z,19.80
2018-09-17T07:44:39.423Z,19.80
2018-09-17T07:45:39.391Z,17.50
2018-09-17T07:46:39.366Z,14.40
2018-09-17T07:47:39.336Z,12.70
2018-09-17T07:48:39.307Z,19.80
2018-09-17T07:49:39.284Z,12.70
2018-09-17T07:50:39.258Z,9.70
2018-09-17T07:51:39.226Z,11.10
2018-09-17T07:52:39.219Z,14.20
2018-09-17T07:53:39.179Z,10.00
2018-09-17T07:54:39.145Z,10.50
2018-09-17T07:55:39.116Z,12.80
2018-09-17T07:56:39.094Z,10.80
2018-09-17T07:57:39.065Z,14.30
2018-09-17T07:58:39.037Z,14.80
2018-09-17T07:59:39.008Z,15.60
2018-09-17T08:00:38.984Z,16.70
2018-09-17T08:01:38.962Z,15.90
2018-09-17T08:02:38.933Z,12.20
2018-09-17T08:03:38.901Z,11.00
2018-09-17T08:04:38.900Z,8.50
2018-09-17T08:05:38.921Z,14.60
2018-09-17T08:06:38.823Z,13.50
2018-09-17T08:07:38.795Z,12.90
2018-09-17T08:08:38.767Z,20.60
2018-09-17T08:09:38.742Z,14.20
2018-09-17T08:10:38.718Z,13.80
2018-09-17T08:11:38.694Z,17.10
2018-09-17T08:12:38.670Z,17.60
2018-09-17T08:13:38.638Z,19.90
2018-09-17T08:14:38.638Z,12.00
2018-09-17T08:15:38.592Z,21.20
2018-09-17T08:16:38.561Z,18.50
2018-09-17T08:17:38.537Z,18.10
2018-09-17T08:18:38.511Z,21.80
2018-09-17T08:19:38.542Z,21.60
2018-09-17T08:20:38.459Z,16.20
2018-09-17T08:21:38.452Z,12.80
2018-09-17T08:22:38.409Z,18.70
2018-09-17T08:23:38.390Z,19.60
2018-09-17T08:24:38.433Z,20.70
2018-09-17T08:25:38.358Z,22.20
2018-09-17T08:26:38.336Z,22.70
2018-09-17T08:27:38.280Z,22.50
2018-09-17T08:28:38.256Z,24.20
2018-09-17T08:29:38.235Z,29.70
2018-09-17T08:30:38.318Z,24.10
2018-09-17T08:31:38.190Z,19.10
2018-09-17T08:32:38.181Z,21.80
2018-09-17T08:33:38.138Z,20.80
2018-09-17T08:34:38.109Z,18.40
2018-09-17T08:35:38.090Z,19.50
2018-09-17T08:36:38.058Z,13.70
2018-09-17T08:37:38.033Z,19.10
2018-09-17T08:38:38.009Z,23.40
2018-09-17T08:39:37.990Z,18.50
2018-09-17T08:40:37.975Z,20.30
2018-09-17T08:41:37.939Z,20.90
2018-09-17T08:42:37.909Z,25.10
2018-09-17T08:43:37.886Z,20.70
2018-09-17T08:44:37.875Z,15.00
2018-09-17T08:45:37.900Z,24.50
2018-09-17T08:46:37.843Z,16.60
2018-09-17T08:47:37.800Z,16.90
2018-09-17T08:48:37.764Z,18.60
2018-09-17T08:49:37.740Z,19.80
2018-09-17T08:50:37.713Z,14.10
2018-09-17T08:51:37.692Z,11.90
2018-09-17T08:52:37.714Z,17.30
2018-09-17T08:53:37.664Z,10.70
2018-09-17T08:54:37.622Z,10.80
2018-09-17T08:55:37.610Z,10.90
2018-09-17T08:56:37.569Z,17.70
2018-09-17T08:57:37.545Z,18.70
2018-09-17T08:58:37.518Z,12.60
2018-09-17T08:59:37.498Z,21.00
2018-09-17T09:00:37.471Z,10.30
2018-09-17T09:01:37.453Z,13.20
2018-09-17T09:02:37.486Z,14.80
2018-09-17T09:03:37.401Z,15.60
2018-09-17T09:04:37.375Z,20.90
2018-09-17T09:05:37.352Z,18.80
2018-09-17T09:06:37.334Z,21.80
2018-09-17T09:07:37.304Z,11.80
2018-09-17T09:08:37.278Z,9.40
2018-09-17T09:09:37.262Z,10.70
2018-09-17T09:10:37.237Z,11.70
2018-09-17T09:11:37.200Z,15.40
2018-09-17T09:12:37.178Z,17.10
2018-09-17T09:13:37.155Z,11.20
2018-09-17T09:14:37.140Z,10.90
2018-09-17T09:15:37.107Z,14.30
2018-09-17T09:16:37.082Z,11.20
2018-09-17T09:17:37.058Z,15.10
2018-09-17T09:18:37.037Z,12.20
2018-09-17T09:19:37.029Z,15.20
2018-09-17T09:20:36.984Z,13.20
2018-09-17T09:21:36.964Z,15.50
2018-09-17T09:22:36.973Z,18.90
2018-09-17T09:23:36.946Z,9.10
2018-09-17T09:24:36.886Z,6.10
2018-09-17T09:25:36.879Z,11.40
2018-09-17T09:26:36.852Z,13.90
2018-09-17T09:27:36.817Z,7.40
2018-09-17T09:28:36.791Z,11.70
2018-09-17T09:29:36.773Z,8.50
2018-09-17T09:30:36.767Z,10.30
2018-09-17T09:31:36.726Z,15.50
2018-09-17T09:32:36.700Z,7.30
2018-09-17T09:33:36.670Z,14.20
2018-09-17T09:34:36.654Z,13.60
2018-09-17T09:35:36.629Z,16.40
2018-09-17T09:36:36.609Z,14.20
2018-09-17T09:37:36.600Z,11.30
2018-09-17T09:38:36.599Z,9.00
2018-09-17T09:39:36.547Z,10.40
2018-09-17T09:40:36.507Z,11.50
2018-09-17T09:41:36.483Z,16.90
2018-09-17T09:42:36.457Z,9.70
2018-09-17T09:43:36.618Z,6.90
2018-09-17T09:44:36.417Z,8.90
2018-09-17T09:45:36.399Z,9.40
2018-09-17T09:46:36.367Z,11.20
2018-09-17T09:47:36.343Z,12.70
2018-09-17T09:48:36.322Z,7.00
2018-09-17T09:49:36.296Z,9.10
2018-09-17T09:50:36.269Z,10.40
2018-09-17T09:51:36.252Z,5.10
2018-09-17T09:52:36.256Z,8.60
2018-09-17T09:53:36.200Z,6.40
2018-09-17T09:54:36.185Z,14.80
2018-09-17T09:55:36.169Z,12.00
2018-09-17T09:56:36.134Z,11.40
2018-09-17T09:57:36.151Z,11.40
2018-09-17T09:58:36.114Z,6.40
2018-09-17T09:59:36.128Z,16.20
2018-09-17T10:00:36.040Z,7.70
2018-09-17T10:01:36.018Z,6.00
2018-09-17T10:02:35.994Z,6.80
2018-09-17T10:03:35.966Z,5.00
2018-09-17T10:04:35.952Z,9.10
2018-09-17T10:05:35.929Z,5.20
2018-09-17T10:06:35.907Z,7.60
2018-09-17T10:07:35.877Z,6.50
2018-09-17T10:08:35.855Z,6.40
2018-09-17T10:09:35.834Z,5.80
2018-09-17T10:10:35.811Z,10.50
2018-09-17T10:11:35.855Z,10.50
2018-09-17T10:12:35.772Z,11.90
2018-09-17T10:13:35.752Z,8.40
2018-09-17T10:14:35.745Z,7.90
2018-09-17T10:15:35.695Z,9.20
2018-09-17T10:16:35.676Z,5.30
2018-09-17T10:17:35.675Z,5.60
2018-09-17T10:18:35.634Z,3.60
2018-09-17T10:19:35.609Z,4.00
2018-09-17T10:20:35.586Z,5.70
2018-09-17T10:21:35.564Z,8.10
2018-09-17T10:22:35.543Z,5.20
2018-09-17T10:23:35.536Z,6.70
2018-09-17T10:24:35.522Z,5.00
2018-09-17T10:25:35.483Z,13.50
2018-09-17T10:26:35.479Z,7.60
2018-09-17T10:27:35.443Z,6.00
2018-09-17T10:28:36.144Z,7.60
2018-09-17T10:29:35.423Z,8.40
2018-09-17T10:30:35.377Z,8.90
2018-09-17T10:31:35.357Z,6.10
2018-09-17T10:32:35.323Z,5.90
2018-09-17T10:33:35.308Z,4.60
2018-09-17T10:34:35.285Z,8.10
2018-09-17T10:35:35.298Z,3.20
2018-09-17T10:36:35.240Z,6.30
2018-09-17T10:37:35.221Z,6.00
2018-09-17T10:38:35.200Z,6.80
2018-09-17T10:39:35.229Z,10.70
2018-09-17T10:40:35.158Z,8.00
2018-09-17T10:41:35.140Z,8.00
2018-09-17T10:42:35.118Z,9.60
2018-09-17T10:43:35.094Z,7.30
2018-09-17T10:44:35.080Z,4.40
2018-09-17T10:45:35.048Z,6.20
2018-09-17T10:46:35.029Z,5.60
2018-09-17T10:47:35.010Z,5.20
2018-09-17T10:48:34.984Z,5.70
2018-09-17T10:49:34.976Z,5.50
2018-09-17T10:50:34.952Z,6.50
2018-09-17T10:51:34.925Z,6.30
2018-09-17T10:52:34.902Z,5.00
2018-09-17T10:53:34.894Z,5.30
2018-09-17T10:54:35.003Z,6.40
2018-09-17T10:55:34.907Z,6.70
2018-09-17T10:56:34.816Z,2.70
2018-09-17T10:57:34.791Z,7.50
2018-09-17T10:58:34.778Z,6.70
2018-09-17T10:59:34.757Z,7.20
2018-09-17T11:00:34.752Z,7.20
2018-09-17T11:01:34.706Z,12.80
2018-09-17T11:02:34.679Z,19.30
2018-09-17T11:03:34.683Z,14.70
2018-09-17T11:04:34.667Z,18.10
2018-09-17T11:05:34.613Z,6.40
2018-09-17T11:06:34.595Z,5.80
2018-09-17T11:07:34.573Z,8.50
2018-09-17T11:08:34.550Z,7.00
2018-09-17T11:09:34.530Z,6.00
2018-09-17T11:10:34.509Z,3.80
2018-09-17T11:11:34.534Z,10.60
2018-09-17T11:12:34.467Z,5.90
2018-09-17T11:13:34.454Z,4.70
2018-09-17T11:14:34.427Z,9.90
2018-09-17T11:15:34.429Z,6.20
2018-09-17T11:16:34.390Z,7.30
2018-09-17T11:17:34.371Z,6.40
2018-09-17T11:18:34.340Z,10.50
2018-09-17T11:19:34.318Z,5.00
2018-09-17T11:20:34.303Z,5.20
2018-09-17T11:21:34.279Z,8.20
2018-09-17T11:22:34.257Z,7.30
2018-09-17T11:23:34.263Z,6.40
2018-09-17T11:24:34.243Z,5.60
2018-09-17T11:25:34.200Z,9.10
2018-09-17T11:26:34.181Z,4.30
2018-09-17T11:27:34.162Z,6.60
2018-09-17T11:28:34.142Z,7.30
2018-09-17T11:29:34.128Z,7.50
2018-09-17T11:30:34.109Z,8.20
2018-09-17T11:31:34.089Z,7.10
2018-09-17T11:32:34.055Z,5.80
2018-09-17T11:33:34.045Z,10.10
2018-09-17T11:34:34.024Z,10.40
2018-09-17T11:35:34.114Z,6.30
2018-09-17T11:36:33.981Z,6.70
2018-09-17T11:37:33.961Z,8.50
2018-09-17T11:38:33.939Z,5.10
2018-09-17T11:39:33.918Z,12.90
2018-09-17T11:40:33.903Z,5.70
2018-09-17T11:41:33.879Z,29.20
2018-09-17T11:42:33.867Z,83.70
2018-09-17T11:43:33.842Z,19.70
2018-09-17T11:44:33.822Z,94.00
2018-09-17T11:45:33.805Z,53.80
2018-09-17T11:46:33.783Z,8.60
2018-09-17T11:47:33.786Z,4.50
2018-09-17T11:48:33.756Z,4.40
2018-09-17T11:49:33.735Z,4.20
2018-09-17T11:50:33.738Z,9.10
2018-09-17T11:51:33.690Z,5.40
2018-09-17T11:52:33.673Z,3.00
2018-09-17T11:53:33.661Z,4.40
2018-09-17T11:54:33.642Z,6.00
2018-09-17T11:55:33.621Z,4.90
2018-09-17T11:56:33.615Z,8.50
2018-09-17T11:57:33.583Z,19.80
2018-09-17T11:58:33.564Z,12.60
2018-09-17T11:59:33.549Z,19.20
2018-09-17T12:00:33.533Z,18.00
2018-09-17T12:01:33.510Z,11.70
2018-09-17T12:02:33.495Z,13.60
2018-09-17T12:03:33.478Z,9.20
2018-09-17T12:04:33.459Z,9.00
2018-09-17T12:05:33.443Z,25.90
2018-09-17T12:06:33.424Z,9.20
2018-09-17T12:07:33.419Z,8.00
2018-09-17T12:08:33.377Z,10.90
2018-09-17T12:09:33.357Z,6.50
2018-09-17T12:10:33.342Z,6.30
2018-09-17T12:11:33.323Z,10.80
2018-09-17T12:12:33.305Z,10.10
2018-09-17T12:13:33.303Z,5.60
2018-09-17T12:14:33.270Z,8.50
2018-09-17T12:15:33.248Z,8.30
2018-09-17T12:16:33.230Z,7.20
2018-09-17T12:17:33.213Z,7.40
2018-09-17T12:18:33.196Z,8.40
2018-09-17T12:19:33.177Z,13.50
2018-09-17T12:20:33.160Z,13.40
2018-09-17T12:21:33.147Z,10.20
2018-09-17T12:22:33.120Z,12.80
2018-09-17T12:23:33.128Z,15.70
2018-09-17T12:24:33.088Z,23.40
2018-09-17T12:25:33.068Z,14.20
2018-09-17T12:26:33.051Z,10.20
2018-09-17T12:27:33.031Z,17.70
2018-09-17T12:28:33.046Z,14.80
2018-09-17T12:29:33.001Z,8.20
2018-09-17T12:30:32.978Z,5.70
2018-09-17T12:31:32.967Z,6.90
2018-09-17T12:32:32.980Z,9.40
2018-09-17T12:33:32.953Z,5.80
2018-09-17T12:34:32.907Z,3.50
2018-09-17T12:35:32.893Z,11.10
2018-09-17T12:36:32.878Z,7.90
2018-09-17T12:37:32.867Z,8.10
2018-09-17T12:38:32.842Z,11.10
2018-09-17T12:39:32.817Z,6.00
2018-09-17T12:40:32.799Z,6.00
2018-09-17T12:41:32.810Z,6.90
2018-09-17T12:42:32.770Z,5.50
2018-09-17T12:43:32.750Z,14.20
2018-09-17T12:44:32.731Z,10.50
2018-09-17T12:45:32.711Z,8.10
2018-09-17T12:46:32.699Z,9.70
2018-09-17T12:47:32.682Z,6.10
2018-09-17T12:48:32.665Z,5.60
2018-09-17T12:49:32.643Z,5.90
2018-09-17T12:50:32.635Z,5.00
2018-09-17T12:51:32.609Z,8.90
2018-09-17T12:52:32.592Z,6.80
2018-09-17T12:53:32.573Z,4.50
2018-09-17T12:54:32.568Z,5.40
2018-09-17T12:55:32.551Z,7.00
2018-09-17T12:56:32.522Z,12.00
2018-09-17T12:57:32.505Z,6.80
2018-09-17T12:58:32.484Z,7.20